Time;durP1;ratioP1;P1;durP2;ratioP2;P2;SDS_P1;SDS_P2;PMS_P1;PMS_P2;Temp;Humidity;BMP_temperature;BMP_pressure;BME280_temperature;BME280_humidity;BME280_pressure;Samples;Min_cycle;Max_cycle;Signal;HPM_P1;HPM_P2
2023/08/07 00:02:20;;;;;;;23.25;7.70;;;;;;;10.35;100.00;97200.91;5050169;28;20405;-71
2023/08/07 00:04:46;;;;;;;25.67;8.45;;;;;;;10.35;100.00;97200.09;5050198;28;20405;-71
2023/08/07 00:07:12;;;;;;;20.53;7.83;;;;;;;10.34;100.00;97201.16;5050081;28;20497;-71
2023/08/07 00:09:40;;;;;;;23.75;7.70;;;;;;;10.33;100.00;97202.19;5050122;28;20500;-72
2023/08/07 00:12:06;;;;;;;19.90;8.00;;;;;;;10.30;100.00;97202.72;5050140;28;20408;-72
2023/08/07 00:14:32;;;;;;;22.25;7.80;;;;;;;10.28;100.00;97202.16;5050039;28;20505;-72
2023/08/07 00:16:58;;;;;;;21.02;7.38;;;;;;;10.26;100.00;97206.91;5050169;28;20409;-72
2023/08/07 00:19:24;;;;;;;20.65;7.70;;;;;;;10.27;100.00;97203.22;5050000;28;20433;-71
2023/08/07 00:21:51;;;;;;;22.23;8.13;;;;;;;10.31;100.00;97213.03;5050143;28;20405;-71
2023/08/07 00:24:17;;;;;;;31.15;8.48;;;;;;;10.32;100.00;97222.56;5050057;28;20429;-71
2023/08/07 00:26:44;;;;;;;22.73;8.65;;;;;;;10.25;100.00;97216.69;5050060;28;20408;-71
2023/08/07 00:29:10;;;;;;;24.42;8.27;;;;;;;10.38;100.00;97220.75;5049946;28;20408;-72
2023/08/07 00:31:37;;;;;;;26.10;8.40;;;;;;;10.32;100.00;97219.91;5049926;28;20416;-72
2023/08/07 00:34:03;;;;;;;23.67;8.30;;;;;;;10.32;100.00;97222.56;5050014;28;20587;-71
2023/08/07 00:36:31;;;;;;;23.88;7.85;;;;;;;10.34;100.00;97225.75;5049972;28;20410;-71
2023/08/07 00:38:57;;;;;;;28.08;9.10;;;;;;;10.26;100.00;97228.88;5049823;28;20478;-72
2023/08/07 00:41:23;;;;;;;21.15;8.48;;;;;;;10.38;100.00;97228.69;5049836;28;20397;-72
2023/08/07 00:43:51;;;;;;;21.23;7.97;;;;;;;10.35;100.00;97226.56;5049858;28;20835;-72
2023/08/07 00:46:17;;;;;;;24.23;8.65;;;;;;;10.35;100.00;97232.66;5049884;28;20401;-72
2023/08/07 00:48:44;;;;;;;19.05;7.70;;;;;;;10.35;100.00;97230.00;5049670;28;20397;-71
2023/08/07 00:51:11;;;;;;;23.97;8.33;;;;;;;10.31;100.00;97234.19;5048539;28;20413;-71
2023/08/07 00:53:39;;;;;;;21.02;7.43;;;;;;;10.34;100.00;97231.06;5049569;28;20402;-71
2023/08/07 00:56:06;;;;;;;20.15;8.00;;;;;;;10.34;100.00;97233.69;5049736;28;20436;-71
2023/08/07 00:58:33;;;;;;;25.20;7.53;;;;;;;10.36;100.00;97234.25;5049600;28;20485;-71
2023/08/07 01:01:01;;;;;;;17.58;7.50;;;;;;;10.37;100.00;97241.13;5049669;28;20394;-72
2023/08/07 01:03:27;;;;;;;23.40;7.83;;;;;;;10.36;100.00;97239.53;5049655;28;20406;-72
2023/08/07 01:05:54;;;;;;;16.92;7.05;;;;;;;10.38;100.00;97241.91;5049639;28;20914;-72
2023/08/07 01:08:20;;;;;;;17.50;6.80;;;;;;;10.40;100.00;97240.63;5049528;28;20424;-72
2023/08/07 01:11:02;;;;;;;29.77;8.48;;;;;;;10.39;100.00;97248.81;5051408;28;20406;-72
2023/08/07 01:13:32;;;;;;;21.80;7.90;;;;;;;10.41;100.00;97252.81;5053113;28;20397;-72
2023/08/07 01:16:07;;;;;;;21.92;7.93;;;;;;;10.34;100.00;97249.56;5053199;28;20459;-72
2023/08/07 01:18:34;;;;;;;18.08;7.28;;;;;;;10.41;100.00;97259.94;5053134;28;20401;-72
2023/08/07 01:21:02;;;;;;;18.55;7.43;;;;;;;10.41;100.00;97258.09;5052967;28;20397;-71
2023/08/07 01:23:30;;;;;;;22.15;7.28;;;;;;;10.44;100.00;97254.16;5053016;28;20402;-72
2023/08/07 01:25:56;;;;;;;21.23;8.15;;;;;;;10.49;100.00;97251.53;5053098;28;20408;-72
2023/08/07 01:28:28;;;;;;;25.42;8.77;;;;;;;10.50;100.00;97249.69;5052794;28;20401;-71
2023/08/07 01:30:59;;;;;;;24.43;8.50;;;;;;;10.51;100.00;97259.22;5053079;28;20395;-71
2023/08/07 01:33:34;;;;;;;22.80;7.82;;;;;;;10.48;100.00;97255.22;5053062;28;20416;-71
2023/08/07 01:36:06;;;;;;;20.15;8.10;;;;;;;10.48;100.00;97261.31;5052977;28;20393;-71
2023/08/07 01:38:34;;;;;;;26.88;8.85;;;;;;;10.46;100.00;97252.03;5052839;28;20398;-71
2023/08/07 01:41:02;;;;;;;23.73;7.50;;;;;;;10.48;100.00;97253.38;5052826;28;20890;-71
2023/08/07 01:43:30;;;;;;;30.65;9.45;;;;;;;10.43;100.00;97257.84;5052583;28;20393;-70
2023/08/07 01:45:58;;;;;;;28.23;8.98;;;;;;;10.29;100.00;97262.75;5052671;28;20406;-71
2023/08/07 01:48:24;;;;;;;24.20;8.23;;;;;;;10.38;100.00;97253.28;5052553;28;20907;-71
2023/08/07 01:50:50;;;;;;;24.58;9.10;;;;;;;10.37;100.00;97254.38;5052576;28;20459;-71
2023/08/07 01:53:16;;;;;;;24.55;8.15;;;;;;;10.40;100.00;97251.19;5052682;28;20394;-71
2023/08/07 01:55:44;;;;;;;27.00;8.45;;;;;;;10.28;100.00;97260.38;5051017;28;20429;-71
2023/08/07 01:58:10;;;;;;;19.42;7.57;;;;;;;10.36;100.00;97257.25;5052302;28;20495;-70
2023/08/07 02:00:36;;;;;;;18.95;7.55;;;;;;;10.38;100.00;97248.00;5052445;28;20405;-70
2023/08/07 02:03:03;;;;;;;21.35;7.90;;;;;;;10.47;100.00;97240.41;5052555;28;20394;-70
2023/08/07 02:05:29;;;;;;;19.85;7.78;;;;;;;10.44;100.00;97254.94;5052439;28;20948;-70
2023/08/07 02:07:56;;;;;;;26.45;8.20;;;;;;;10.44;100.00;97254.16;5052188;28;20430;-70
2023/08/07 02:10:23;;;;;;;23.77;7.63;;;;;;;10.50;100.00;97249.69;5052214;28;20482;-70
2023/08/07 02:12:50;;;;;;;23.30;7.68;;;;;;;10.40;100.00;97256.50;5052140;28;20909;-70
2023/08/07 02:15:16;;;;;;;21.25;7.07;;;;;;;10.39;100.00;97257.53;5052229;28;20417;-71
2023/08/07 02:17:42;;;;;;;17.25;7.05;;;;;;;10.38;100.00;97261.22;5051903;28;20507;-70
2023/08/07 02:20:10;;;;;;;17.20;6.70;;;;;;;10.38;100.00;97258.59;5052087;28;20492;-70
2023/08/07 02:22:36;;;;;;;19.90;7.55;;;;;;;10.38;100.00;97265.72;5050816;28;20405;-70
2023/08/07 02:25:03;;;;;;;21.40;7.80;;;;;;;10.38;100.00;97269.16;5052277;28;20790;-70
2023/08/07 02:27:29;;;;;;;23.60;7.80;;;;;;;10.33;100.00;97263.84;5051535;28;20416;-70
2023/08/07 02:29:56;;;;;;;22.88;7.30;;;;;;;10.33;100.00;97266.50;5051935;28;20455;-71
2023/08/07 02:32:22;;;;;;;25.88;8.10;;;;;;;10.36;100.00;97276.59;5051646;28;20451;-71
2023/08/07 02:34:49;;;;;;;23.17;7.32;;;;;;;10.34;100.00;97269.94;5051719;28;20923;-71
2023/08/07 02:37:16;;;;;;;27.27;8.32;;;;;;;10.33;100.00;97274.44;5051536;28;20440;-70
2023/08/07 02:39:43;;;;;;;20.93;8.00;;;;;;;10.27;100.00;97270.16;5051764;28;20439;-70
2023/08/07 02:42:09;;;;;;;22.10;7.28;;;;;;;10.24;100.00;97264.53;5051596;28;20875;-70
2023/08/07 02:44:35;;;;;;;28.43;8.43;;;;;;;10.18;100.00;97261.06;5051587;28;20463;-71
2023/08/07 02:47:03;;;;;;;21.80;7.80;;;;;;;10.18;100.00;97262.91;5051566;28;20405;-70
2023/08/07 02:49:29;;;;;;;25.20;8.05;;;;;;;10.20;100.00;97274.84;5051415;28;20393;-70
2023/08/07 02:51:55;;;;;;;24.08;7.93;;;;;;;10.23;100.00;97263.75;5051471;28;20405;-71
2023/08/07 02:54:21;;;;;;;27.15;8.50;;;;;;;10.16;100.00;97262.31;5051405;28;20470;-70
2023/08/07 02:56:48;;;;;;;24.85;7.78;;;;;;;10.14;100.00;97281.13;5051279;28;20409;-70
2023/08/07 02:59:15;;;;;;;26.77;7.75;;;;;;;10.13;100.00;97268.94;5051250;28;20429;-70
2023/08/07 03:01:42;;;;;;;22.50;7.80;;;;;;;10.13;100.00;97273.41;5051195;28;20899;-70
2023/08/07 03:04:09;;;;;;;19.42;7.18;;;;;;;10.06;100.00;97271.78;5051281;28;20400;-70
2023/08/07 03:06:36;;;;;;;27.02;7.72;;;;;;;10.00;100.00;97271.97;5051318;28;20397;-70
2023/08/07 03:09:02;;;;;;;20.60;7.18;;;;;;;9.97;100.00;97288.34;5051120;28;20406;-70
2023/08/07 03:11:28;;;;;;;23.63;7.50;;;;;;;9.90;100.00;97285.91;5051110;28;20405;-70
2023/08/07 03:13:54;;;;;;;25.73;7.22;;;;;;;9.98;100.00;97276.72;5051065;28;20474;-70
2023/08/07 03:16:20;;;;;;;26.27;7.35;;;;;;;9.93;100.00;97276.66;5051123;28;20397;-70
2023/08/07 03:18:47;;;;;;;18.33;6.47;;;;;;;9.93;100.00;97288.03;5050905;28;20492;-70
2023/08/07 03:21:14;;;;;;;27.77;7.47;;;;;;;9.89;100.00;97289.59;5050960;28;20500;-70
2023/08/07 03:23:40;;;;;;;21.27;6.88;;;;;;;9.86;100.00;97289.28;5050957;28;20425;-70
2023/08/07 03:26:09;;;;;;;22.30;7.07;;;;;;;9.88;100.00;97287.97;5050845;28;20492;-70
2023/08/07 03:28:36;;;;;;;20.25;6.40;;;;;;;9.90;100.00;97285.91;5050703;28;20872;-70
2023/08/07 03:31:02;;;;;;;26.55;7.07;;;;;;;9.82;100.00;97288.97;5050778;28;20407;-70
2023/08/07 03:33:29;;;;;;;24.70;6.80;;;;;;;9.88;100.00;97292.47;5050509;28;20890;-70
2023/08/07 03:35:55;;;;;;;23.27;6.65;;;;;;;9.89;100.00;97288.78;5050613;28;20863;-70
2023/08/07 03:38:23;;;;;;;20.03;6.20;;;;;;;9.84;100.00;97288.75;5050458;28;20410;-70
2023/08/07 03:40:49;;;;;;;20.40;6.10;;;;;;;9.91;100.00;97284.84;5050523;28;20409;-70
2023/08/07 03:43:15;;;;;;;26.85;7.38;;;;;;;9.87;100.00;97283.75;5050693;28;20409;-70
2023/08/07 03:45:41;;;;;;;18.63;5.93;;;;;;;9.94;100.00;97292.28;5050436;28;20896;-70
2023/08/07 03:48:07;;;;;;;21.38;6.05;;;;;;;9.91;100.00;97294.63;5049225;28;20508;-70
2023/08/07 03:50:36;;;;;;;21.23;6.35;;;;;;;9.95;100.00;97298.38;5050434;28;20402;-70
2023/08/07 03:53:03;;;;;;;20.35;5.93;;;;;;;9.93;100.00;97295.16;5050473;28;20412;-70
2023/08/07 03:55:31;;;;;;;19.75;6.00;;;;;;;9.91;100.00;97292.00;5050201;28;20894;-70
2023/08/07 03:57:57;;;;;;;25.17;6.32;;;;;;;9.84;100.00;97296.66;5050565;28;20406;-71
2023/08/07 04:00:23;;;;;;;27.45;6.47;;;;;;;9.75;100.00;97295.50;5050391;28;20480;-71
2023/08/07 04:02:49;;;;;;;15.70;5.85;;;;;;;9.86;100.00;97287.44;5050296;28;20413;-70
2023/08/07 04:05:16;;;;;;;21.88;6.07;;;;;;;9.83;100.00;97300.34;5050295;28;20405;-70
2023/08/07 04:07:42;;;;;;;26.75;6.35;;;;;;;9.82;100.00;97296.13;5050155;28;20420;-71
2023/08/07 04:10:09;;;;;;;20.45;5.95;;;;;;;9.81;100.00;97292.66;5048921;28;20918;-71
2023/08/07 04:12:36;;;;;;;18.23;5.95;;;;;;;9.79;100.00;97299.25;5050127;28;20412;-71
2023/08/07 04:15:03;;;;;;;24.20;6.38;;;;;;;9.71;100.00;97293.34;5050149;28;20424;-70
2023/08/07 04:17:29;;;;;;;20.35;6.05;;;;;;;9.80;100.00;97298.19;5048719;28;20409;-70
2023/08/07 04:19:55;;;;;;;25.50;5.60;;;;;;;9.76;100.00;97292.63;5050273;28;20402;-70
2023/08/07 04:22:21;;;;;;;15.30;5.45;;;;;;;9.81;100.00;97291.88;5050112;28;20401;-70
2023/08/07 04:24:48;;;;;;;21.42;6.80;;;;;;;9.78;100.00;97303.72;5050196;28;20441;-70
2023/08/07 04:27:14;;;;;;;24.35;6.65;;;;;;;9.68;100.00;97296.50;5050040;28;20810;-70
2023/08/07 04:29:41;;;;;;;25.00;6.72;;;;;;;9.73;100.00;97301.03;5050110;28;20394;-70
2023/08/07 04:32:08;;;;;;;20.63;6.38;;;;;;;9.83;100.00;97303.00;5050015;28;20409;-71
2023/08/07 04:34:35;;;;;;;20.10;6.30;;;;;;;9.81;100.00;97305.09;5049812;28;20887;-71
2023/08/07 04:37:01;;;;;;;22.60;6.70;;;;;;;9.83;100.00;97306.44;5050100;28;20402;-70
2023/08/07 04:39:27;;;;;;;19.38;6.10;;;;;;;9.95;100.00;97311.59;5049909;28;20401;-70
2023/08/07 04:41:53;;;;;;;26.90;6.60;;;;;;;9.94;100.00;97308.13;5049854;28;20437;-70
2023/08/07 04:44:20;;;;;;;24.67;6.38;;;;;;;9.97;100.00;97312.94;5049970;28;20459;-70
2023/08/07 04:46:47;;;;;;;17.33;5.50;;;;;;;9.99;100.00;97313.50;5053365;28;20397;-70
2023/08/07 04:49:13;;;;;;;13.48;5.70;;;;;;;10.01;100.00;97314.03;5053779;28;20887;-70
2023/08/07 04:51:40;;;;;;;18.27;5.90;;;;;;;10.05;100.00;97319.63;5053672;28;20483;-70
2023/08/07 04:54:06;;;;;;;27.38;6.35;;;;;;;10.09;100.00;97315.44;5053589;28;20512;-70
2023/08/07 04:56:32;;;;;;;19.90;6.10;;;;;;;10.14;100.00;97309.41;5053602;28;20463;-70
2023/08/07 04:58:58;;;;;;;22.60;5.82;;;;;;;10.18;100.00;97319.25;5053628;28;20816;-70
2023/08/07 05:01:25;;;;;;;26.08;6.30;;;;;;;10.16;100.00;97315.22;5053489;28;20440;-70
2023/08/07 05:03:52;;;;;;;20.00;6.00;;;;;;;10.19;100.00;97312.13;5053577;28;20437;-70
2023/08/07 05:06:19;;;;;;;15.30;5.00;;;;;;;10.24;100.00;97326.19;5053531;28;20752;-70
2023/08/07 05:08:45;;;;;;;18.00;5.25;;;;;;;10.21;100.00;97325.91;5053288;28;20480;-70
2023/08/07 05:11:11;;;;;;;17.73;4.70;;;;;;;10.23;100.00;97327.22;5053534;28;20903;-71
2023/08/07 05:13:38;;;;;;;17.60;5.25;;;;;;;10.24;100.00;97314.81;5053360;28;20778;-70
2023/08/07 05:16:04;;;;;;;17.23;5.53;;;;;;;10.21;100.00;97321.41;5053231;28;20515;-71
2023/08/07 05:18:31;;;;;;;21.48;5.18;;;;;;;10.20;100.00;97322.47;5053043;28;20408;-70
2023/08/07 05:20:58;;;;;;;13.75;4.78;;;;;;;10.27;100.00;97325.69;5053128;28;20424;-70
2023/08/07 05:23:24;;;;;;;18.37;4.93;;;;;;;10.29;100.00;97318.31;5051569;28;20494;-71
2023/08/07 05:25:51;;;;;;;16.60;4.78;;;;;;;10.31;100.00;97321.50;5051947;28;20413;-71
2023/08/07 05:28:17;;;;;;;12.73;4.60;;;;;;;10.34;100.00;97330.78;5052928;28;20398;-70
2023/08/07 05:30:43;;;;;;;12.05;4.50;;;;;;;10.39;100.00;97331.63;5052923;28;20413;-70
2023/08/07 05:33:10;;;;;;;15.75;4.88;;;;;;;10.43;100.00;97334.59;5053031;28;20403;-70
2023/08/07 05:35:38;;;;;;;10.27;4.30;;;;;;;10.48;100.00;97324.84;5052927;28;20443;-70
2023/08/07 05:38:06;;;;;;;12.40;4.43;;;;;;;10.54;100.00;97338.91;5052919;28;20434;-70
2023/08/07 05:40:35;;;;;;;16.88;5.38;;;;;;;10.51;100.00;97341.28;5052897;28;20405;-71
2023/08/07 05:43:01;;;;;;;12.18;4.20;;;;;;;10.61;100.00;97338.69;5052714;28;20404;-71
2023/08/07 05:45:27;;;;;;;8.70;3.95;;;;;;;10.72;100.00;97351.78;5052704;28;20488;-71
2023/08/07 05:47:54;;;;;;;9.45;4.30;;;;;;;10.75;100.00;97342.53;5052643;28;20759;-71
2023/08/07 05:50:20;;;;;;;13.50;4.05;;;;;;;10.82;100.00;97341.28;5051471;28;20448;-71
2023/08/07 05:52:46;;;;;;;12.57;4.13;;;;;;;10.86;100.00;97346.84;5052647;28;20408;-72
2023/08/07 05:55:14;;;;;;;14.00;4.10;;;;;;;10.82;100.00;97356.38;5052460;28;20486;-72
2023/08/07 05:57:40;;;;;;;18.15;4.53;;;;;;;10.89;100.00;97346.34;5052140;28;20410;-72
2023/08/07 06:00:08;;;;;;;15.18;4.25;;;;;;;10.76;100.00;97341.47;5052591;28;20440;-72
2023/08/07 06:02:34;;;;;;;11.47;4.03;;;;;;;10.95;100.00;97358.56;5052292;28;20509;-72
2023/08/07 06:05:00;;;;;;;9.75;3.75;;;;;;;11.06;100.00;97364.72;5052518;28;20871;-71
2023/08/07 06:07:26;;;;;;;13.00;4.43;;;;;;;11.02;100.00;97351.22;5052204;28;20833;-72
2023/08/07 06:09:52;;;;;;;9.32;3.90;;;;;;;11.05;100.00;97355.97;5052337;28;20412;-72
2023/08/07 06:12:20;;;;;;;8.57;3.55;;;;;;;11.12;100.00;97366.38;5052211;28;20437;-72
2023/08/07 06:14:46;;;;;;;14.82;4.38;;;;;;;11.13;100.00;97374.06;5052107;28;20500;-72
2023/08/07 06:17:12;;;;;;;19.43;4.63;;;;;;;11.09;100.00;97369.53;5052063;28;20404;-72
2023/08/07 06:19:38;;;;;;;10.63;3.90;;;;;;;11.11;100.00;97378.03;5052089;28;20437;-71
2023/08/07 06:22:05;;;;;;;12.57;4.03;;;;;;;11.13;100.00;97376.69;5052048;28;20899;-72
2023/08/07 06:24:31;;;;;;;22.45;4.20;;;;;;;11.13;100.00;97381.19;5052013;28;20401;-72
2023/08/07 06:26:57;;;;;;;13.80;4.00;;;;;;;11.15;100.00;97371.97;5052218;28;20409;-72
2023/08/07 06:29:25;;;;;;;14.20;3.83;;;;;;;11.23;100.00;97379.44;5051648;28;20764;-72
2023/08/07 06:31:51;;;;;;;12.30;4.10;;;;;;;11.25;100.00;97390.59;5051985;28;20405;-71
2023/08/07 06:34:17;;;;;;;13.47;3.70;;;;;;;11.36;100.00;97375.53;5051999;28;20417;-72
2023/08/07 06:36:43;;;;;;;10.45;4.28;;;;;;;11.45;100.00;97379.31;5051688;28;20427;-72
2023/08/07 06:39:10;;;;;;;16.50;4.63;;;;;;;11.47;100.00;97379.06;5051783;28;20401;-72
2023/08/07 06:41:37;;;;;;;15.13;4.20;;;;;;;11.55;100.00;97395.28;5051717;28;20875;-72
2023/08/07 06:44:03;;;;;;;11.32;3.88;;;;;;;11.59;100.00;97391.03;5051789;28;20429;-72
2023/08/07 06:46:31;;;;;;;23.13;4.97;;;;;;;11.50;100.00;97386.50;5051741;28;20401;-72
2023/08/07 06:48:57;;;;;;;11.43;4.22;;;;;;;11.62;100.00;97369.31;5051515;28;20405;-72
2023/08/07 06:51:23;;;;;;;9.93;3.63;;;;;;;11.77;100.00;97376.59;5050119;28;20502;-72
2023/08/07 06:53:50;;;;;;;13.30;4.00;;;;;;;11.83;100.00;97383.50;5051586;28;20401;-72
2023/08/07 06:56:16;;;;;;;11.10;3.60;;;;;;;11.82;100.00;97381.91;5051274;28;20519;-72
2023/08/07 06:58:42;;;;;;;7.10;3.40;;;;;;;11.88;100.00;97391.47;5048356;28;20435;-72
2023/08/07 07:01:08;;;;;;;5.18;2.90;;;;;;;11.91;100.00;97404.22;5031320;28;20411;-71
2023/08/07 07:03:35;;;;;;;10.75;3.08;;;;;;;11.88;100.00;97399.44;5031315;28;20407;-71
2023/08/07 07:06:02;;;;;;;6.05;3.17;;;;;;;12.01;100.00;97408.78;5031343;28;20491;-71
2023/08/07 07:08:28;;;;;;;8.75;2.90;;;;;;;12.11;100.00;97402.69;5030720;28;20836;-72
2023/08/07 07:10:54;;;;;;;9.37;3.20;;;;;;;12.08;100.00;97408.53;5031267;28;20414;-72
2023/08/07 07:13:20;;;;;;;5.70;2.88;;;;;;;12.15;100.00;97395.84;5031245;28;20414;-72
2023/08/07 07:15:52;;;;;;;8.00;2.90;;;;;;;12.25;100.00;97406.50;5031347;28;20423;-72
2023/08/07 07:18:18;;;;;;;6.80;2.80;;;;;;;12.27;100.00;97407.00;5031143;28;20403;-72
2023/08/07 07:20:45;;;;;;;5.28;2.70;;;;;;;12.24;100.00;97404.91;5047506;28;20438;-72
2023/08/07 07:23:11;;;;;;;5.90;2.72;;;;;;;12.12;100.00;97399.78;5031133;28;20758;-72
2023/08/07 07:25:38;;;;;;;7.97;3.40;;;;;;;12.23;100.00;97414.72;5031001;28;20470;-72
2023/08/07 07:28:04;;;;;;;10.27;3.53;;;;;;;12.10;100.00;97417.06;5030901;28;20961;-72
2023/08/07 07:30:30;;;;;;;8.27;2.97;;;;;;;12.01;100.00;97409.59;5030887;28;20410;-72
2023/08/07 07:32:56;;;;;;;4.28;2.83;;;;;;;12.08;100.00;97404.03;5045980;28;20419;-72
2023/08/07 07:35:23;;;;;;;6.22;3.17;;;;;;;11.96;100.00;97408.75;5030780;28;20896;-73
2023/08/07 07:37:50;;;;;;;6.38;2.88;;;;;;;11.96;100.00;97408.75;5030827;28;20486;-72
2023/08/07 07:40:17;;;;;;;6.53;2.90;;;;;;;12.03;100.00;97401.34;5030769;28;20439;-72
2023/08/07 07:42:43;;;;;;;10.63;3.13;;;;;;;12.15;100.00;97407.25;5030609;28;20430;-72
2023/08/07 07:45:09;;;;;;;8.25;3.20;;;;;;;12.17;100.00;97409.66;5030763;28;20407;-72
2023/08/07 07:47:35;;;;;;;4.75;2.90;;;;;;;12.31;100.00;97414.22;5030522;28;20414;-72
2023/08/07 07:50:07;;;;;;;5.15;3.00;;;;;;;12.34;100.00;97410.22;5030594;28;20907;-72
2023/08/07 07:52:33;;;;;;;3.90;2.80;;;;;;;12.30;100.00;97422.44;5030498;28;20478;-72
2023/08/07 07:55:01;;;;;;;5.88;2.40;;;;;;;12.44;100.00;97428.03;5030633;28;20904;-71
2023/08/07 07:57:27;;;;;;;7.20;2.80;;;;;;;12.61;100.00;97416.13;5029881;28;20486;-72
2023/08/07 07:59:53;;;;;;;11.10;2.37;;;;;;;12.69;100.00;97414.81;5030516;28;20766;-72
2023/08/07 08:02:20;;;;;;;6.25;2.53;;;;;;;12.90;100.00;97437.69;5030346;28;20411;-72
2023/08/07 08:04:48;;;;;;;5.82;2.85;;;;;;;12.88;100.00;97429.19;5042124;28;20396;-72
2023/08/07 08:07:14;;;;;;;7.13;2.60;;;;;;;12.95;100.00;97426.25;5050295;28;20422;-72
2023/08/07 08:09:40;;;;;;;7.90;2.50;;;;;;;12.97;100.00;97437.44;5050503;28;20826;-71
2023/08/07 08:12:08;;;;;;;4.63;2.50;;;;;;;12.87;100.00;97435.53;5050326;28;20429;-72
2023/08/07 08:14:35;;;;;;;3.90;2.30;;;;;;;12.81;100.00;97436.59;5049834;28;20461;-71
2023/08/07 08:17:01;;;;;;;4.82;2.50;;;;;;;12.59;100.00;97436.84;5049989;28;20570;-71
2023/08/07 08:19:27;;;;;;;5.72;2.50;;;;;;;12.65;100.00;97448.25;5049907;28;20760;-72
2023/08/07 08:21:53;;;;;;;4.47;2.85;;;;;;;12.71;100.00;97448.00;5054140;28;20400;-72
2023/08/07 08:24:20;;;;;;;5.22;2.20;;;;;;;12.69;100.00;97455.47;5054479;28;20405;-72
2023/08/07 08:26:46;;;;;;;5.93;2.50;;;;;;;12.70;100.00;97446.44;5054438;28;20496;-72
2023/08/07 08:29:16;;;;;;;4.85;2.20;;;;;;;12.67;100.00;97449.59;5054172;28;20401;-72
2023/08/07 08:31:42;;;;;;;3.50;2.28;;;;;;;12.78;100.00;97456.50;5051254;28;20402;-72
2023/08/07 08:34:08;;;;;;;8.02;2.50;;;;;;;12.57;100.00;97443.47;5034158;28;20413;-72
2023/08/07 08:36:34;;;;;;;3.38;2.13;;;;;;;12.83;100.00;97465.56;5034535;28;20406;-72
2023/08/07 08:39:00;;;;;;;5.40;2.40;;;;;;;13.00;100.00;97444.88;5032970;28;20422;-72
2023/08/07 08:41:28;;;;;;;3.83;2.50;;;;;;;12.95;100.00;97443.00;5034028;28;20415;-72
2023/08/07 08:43:55;;;;;;;3.40;2.05;;;;;;;13.20;100.00;97460.84;5034069;28;20869;-72
2023/08/07 08:46:28;;;;;;;6.90;2.47;;;;;;;13.36;100.00;97457.13;5033829;28;20399;-72
2023/08/07 08:48:58;;;;;;;5.63;2.00;;;;;;;13.58;100.00;97454.19;5046436;28;20397;-72
2023/08/07 08:51:25;;;;;;;3.70;1.80;;;;;;;13.67;100.00;97465.88;5053699;28;20763;-72
2023/08/07 08:53:53;;;;;;;2.25;1.75;;;;;;;13.88;100.00;97450.66;5053717;28;20401;-72
2023/08/07 08:56:22;;;;;;;2.33;1.77;;;;;;;14.08;100.00;97463.13;5053538;28;20423;-71
2023/08/07 08:58:49;;;;;;;2.58;1.98;;;;;;;14.12;100.00;97459.66;5049914;28;20829;-71
2023/08/07 09:01:17;;;;;;;4.05;1.88;;;;;;;14.33;100.00;97458.50;5033563;28;20936;-71
2023/08/07 09:03:45;;;;;;;3.08;1.60;;;;;;;14.37;100.00;97450.75;5032385;28;20415;-72
2023/08/07 09:06:13;;;;;;;1.67;1.42;;;;;;;14.62;100.00;97456.00;5033561;28;20398;-72
2023/08/07 09:08:40;;;;;;;2.88;1.85;;;;;;;14.69;100.00;97463.69;5033527;28;20437;-71
2023/08/07 09:11:08;;;;;;;3.70;1.77;;;;;;;14.58;100.00;97465.63;5033586;28;20414;-71
2023/08/07 09:13:36;;;;;;;2.50;1.73;;;;;;;14.28;100.00;97463.84;5033348;28;20479;-72
2023/08/07 09:16:02;;;;;;;2.70;1.60;;;;;;;14.39;100.00;97461.97;5047174;28;20444;-71
2023/08/07 09:18:29;;;;;;;5.03;2.03;;;;;;;14.33;100.00;97466.50;5035733;28;20419;-71
2023/08/07 09:20:59;;;;;;;4.72;2.08;;;;;;;14.39;100.00;97483.28;5033180;28;20417;-71
2023/08/07 09:23:26;;;;;;;4.47;2.00;;;;;;;14.41;100.00;97467.81;5033249;28;20399;-71
2023/08/07 09:25:59;;;;;;;4.60;1.90;;;;;;;14.46;100.00;97483.78;5033256;28;20406;-72
2023/08/07 09:28:26;;;;;;;3.95;1.70;;;;;;;14.34;100.00;97488.59;5033043;28;20449;-72
2023/08/07 09:30:53;;;;;;;2.38;1.70;;;;;;;14.52;100.00;97469.34;5032727;28;20491;-72
2023/08/07 09:33:25;;;;;;;3.83;1.77;;;;;;;14.53;100.00;97478.94;5033147;28;20403;-71
2023/08/07 09:35:51;;;;;;;2.60;1.75;;;;;;;14.61;100.00;97480.25;5045227;28;20413;-72
2023/08/07 09:38:22;;;;;;;4.35;1.85;;;;;;;14.71;100.00;97480.19;5052748;28;20412;-72
2023/08/07 09:40:49;;;;;;;3.47;1.70;;;;;;;14.72;100.00;97487.13;5053092;28;20477;-71
2023/08/07 09:43:22;;;;;;;6.25;2.00;;;;;;;14.90;100.00;97489.13;5053007;28;21272;-72
2023/08/07 09:45:51;;;;;;;3.75;1.88;;;;;;;14.92;100.00;97491.53;5052925;28;20427;-72
2023/08/07 09:48:27;;;;;;;3.65;1.75;;;;;;;14.89;100.00;97503.53;5052665;28;20412;-71
2023/08/07 09:50:55;;;;;;;3.03;2.07;;;;;;;14.67;100.00;97497.78;5052779;28;20394;-71
2023/08/07 09:53:30;;;;;;;3.92;1.92;;;;;;;14.72;100.00;97497.78;5052922;28;20398;-72
2023/08/07 09:55:56;;;;;;;3.08;2.00;;;;;;;14.67;100.00;97503.91;5052653;28;20418;-71
2023/08/07 09:58:23;;;;;;;5.22;2.10;;;;;;;14.46;100.00;97505.09;5052560;28;20851;-71
2023/08/07 10:00:55;;;;;;;3.53;2.00;;;;;;;14.63;100.00;97512.75;5052547;28;20973;-71
2023/08/07 10:03:22;;;;;;;4.28;1.92;;;;;;;14.61;100.00;97486.38;5052480;28;20729;-72
2023/08/07 10:05:50;;;;;;;3.05;1.90;;;;;;;14.69;100.00;97503.66;5052592;28;20394;-71
2023/08/07 10:08:16;;;;;;;3.38;1.98;;;;;;;14.95;100.00;97501.66;5052472;28;20499;-71
2023/08/07 10:10:46;;;;;;;2.42;1.90;;;;;;;15.22;100.00;97510.00;5052128;28;20818;-71
2023/08/07 10:13:13;;;;;;;5.45;2.03;;;;;;;15.26;100.00;97499.59;5052256;28;20484;-71
2023/08/07 10:15:42;;;;;;;2.85;1.92;;;;;;;15.26;100.00;97484.34;5052152;28;20440;-71
2023/08/07 10:18:08;;;;;;;3.30;2.05;;;;;;;15.35;100.00;97500.56;5052098;28;20452;-71
2023/08/07 10:20:36;;;;;;;4.57;2.00;;;;;;;15.33;100.00;97489.41;5052122;28;20398;-71
2023/08/07 10:23:07;;;;;;;4.15;1.92;;;;;;;15.33;100.00;97494.72;5052079;28;20394;-71
2023/08/07 10:25:34;;;;;;;2.85;2.03;;;;;;;15.36;100.00;97508.28;5052157;28;20390;-71
2023/08/07 10:28:05;;;;;;;5.20;2.03;;;;;;;15.36;100.00;97488.81;5051862;28;20401;-71
2023/08/07 10:30:34;;;;;;;3.35;2.05;;;;;;;15.34;100.00;97493.63;5051856;28;20481;-71
2023/08/07 10:33:01;;;;;;;2.47;2.00;;;;;;;15.40;100.00;97504.00;5051747;28;20891;-71
2023/08/07 10:35:32;;;;;;;4.80;2.30;;;;;;;15.49;100.00;97515.66;5051661;28;20512;-71
2023/08/07 10:38:07;;;;;;;3.40;2.30;;;;;;;15.41;100.00;97505.56;5051747;28;20413;-71
2023/08/07 10:40:33;;;;;;;4.50;2.00;;;;;;;15.32;100.00;97493.94;5051714;28;20484;-71
2023/08/07 10:43:12;;;;;;;3.00;2.00;;;;;;;15.33;100.00;97510.72;5050875;28;20405;-72
2023/08/07 10:45:38;;;;;;;4.97;2.10;;;;;;;15.09;100.00;97498.09;5051612;28;20394;-72
2023/08/07 10:48:09;;;;;;;4.93;2.13;;;;;;;15.16;100.00;97512.97;5051483;28;20409;-70
2023/08/07 10:50:48;;;;;;;4.23;2.00;;;;;;;15.14;100.00;97517.78;5051443;28;20409;-70
2023/08/07 10:53:21;;;;;;;3.13;2.00;;;;;;;14.99;100.00;97522.13;5051603;28;20561;-71
2023/08/07 10:55:47;;;;;;;4.53;2.03;;;;;;;15.02;100.00;97524.25;5051273;28;20424;-71
2023/08/07 10:58:30;;;;;;;3.97;2.28;;;;;;;15.11;100.00;97514.59;5051299;28;20749;-72
2023/08/07 11:01:22;;;;;;;4.82;2.40;;;;;;;15.30;100.00;97521.94;5051269;28;20397;-71
2023/08/07 11:03:52;;;;;;;7.28;2.42;;;;;;;15.44;100.00;97521.03;5051430;28;20420;-71
2023/08/07 11:06:21;;;;;;;3.50;2.13;;;;;;;15.60;100.00;97516.41;5051314;28;20429;-71
2023/08/07 11:08:48;;;;;;;4.35;2.20;;;;;;;15.72;100.00;97516.03;5051046;28;20398;-71
2023/08/07 11:11:15;;;;;;;2.58;2.00;;;;;;;15.55;100.00;97500.44;5051181;28;20398;-71
2023/08/07 11:13:42;;;;;;;4.78;2.00;;;;;;;15.33;100.00;97513.41;5051023;28;20401;-71
2023/08/07 11:16:09;;;;;;;5.63;2.30;;;;;;;15.06;100.00;97514.63;5051055;28;20416;-72
2023/08/07 11:18:41;;;;;;;4.97;2.42;;;;;;;14.97;100.00;97510.94;5050823;28;20936;-71
2023/08/07 11:21:08;;;;;;;3.42;2.35;;;;;;;14.88;100.00;97509.97;5050958;28;20788;-71
2023/08/07 11:23:35;;;;;;;3.75;2.05;;;;;;;14.69;100.00;97530.28;5050918;28;20459;-72